createdAt,value
2023-04-30T00:00:45.290Z,80.03
2023-04-30T00:03:15.876Z,80.02
2023-04-30T00:05:46.486Z,80.04
2023-04-30T00:08:19.948Z,80.19
2023-04-30T00:10:50.402Z,80.02
2023-04-30T00:13:23.644Z,80.51
2023-04-30T00:15:54.346Z,81.09
2023-04-30T00:18:24.927Z,81.32
2023-04-30T00:20:55.333Z,80.69
2023-04-30T00:23:28.492Z,81.07
2023-04-30T00:25:59.109Z,81.13
2023-04-30T00:28:29.710Z,81.61
2023-04-30T00:31:00.296Z,82.40
2023-04-30T00:33:30.735Z,81.99
2023-04-30T00:36:01.262Z,82.41
2023-04-30T00:38:34.536Z,82.47
2023-04-30T00:41:05.138Z,82.04
2023-04-30T00:43:35.696Z,82.42
2023-04-30T00:46:06.918Z,82.45
2023-04-30T00:48:40.460Z,82.42
2023-04-30T00:51:11.606Z,82.58
2023-04-30T00:53:45.068Z,82.45
2023-04-30T00:56:18.606Z,81.84
2023-04-30T00:58:50.127Z,82.16
2023-04-30T01:01:21.725Z,82.19
2023-04-30T01:03:52.724Z,81.82
2023-04-30T01:06:25.749Z,81.97
2023-04-30T01:08:59.825Z,81.91
2023-04-30T01:11:43.689Z,81.57
2023-04-30T01:14:20.965Z,81.71
2023-04-30T01:17:05.083Z,81.42
2023-04-30T01:19:45.149Z,81.63
2023-04-30T01:22:28.850Z,81.35
2023-04-30T01:25:48.360Z,81.21
2023-04-30T01:28:22.667Z,81.17
2023-04-30T01:30:54.646Z,81.19
2023-04-30T01:33:25.525Z,81.03
2023-04-30T01:36:43.141Z,81.06
2023-04-30T01:39:31.846Z,81.09
2023-04-30T01:42:12.736Z,81.17
2023-04-30T01:45:19.034Z,80.54
2023-04-30T01:47:56.670Z,80.33
2023-04-30T01:50:39.916Z,80.28
2023-04-30T01:53:13.864Z,80.19
2023-04-30T01:55:51.053Z,79.71
2023-04-30T01:58:23.022Z,79.03
2023-04-30T02:00:56.266Z,79.65
2023-04-30T02:03:30.133Z,80.00
2023-04-30T02:06:01.669Z,80.61
2023-04-30T02:08:32.061Z,80.82
2023-04-30T02:11:03.757Z,81.49
2023-04-30T02:13:34.182Z,82.12
2023-04-30T02:16:09.165Z,81.30
2023-04-30T02:18:39.807Z,81.33
2023-04-30T02:21:10.311Z,81.68
2023-04-30T02:23:40.901Z,81.37
2023-04-30T02:26:11.582Z,81.61
2023-04-30T02:28:42.617Z,81.45
2023-04-30T02:31:16.989Z,81.44
2023-04-30T02:33:49.462Z,81.53
2023-04-30T02:36:20.026Z,81.26
2023-04-30T02:38:50.842Z,80.91
2023-04-30T02:41:21.922Z,80.87
2023-04-30T02:43:53.072Z,80.35
2023-04-30T02:46:26.317Z,80.28
2023-04-30T02:48:57.434Z,80.15
2023-04-30T02:51:28.440Z,79.89
2023-04-30T02:53:58.724Z,80.05
2023-04-30T02:56:29.377Z,80.15
2023-04-30T02:58:59.966Z,80.31
2023-04-30T03:01:33.185Z,80.03
2023-04-30T03:04:03.981Z,79.57
2023-04-30T03:06:35.489Z,79.67
2023-04-30T03:09:06.306Z,80.42
2023-04-30T03:11:37.908Z,80.69
2023-04-30T03:14:08.585Z,80.97
2023-04-30T03:16:41.771Z,80.72
2023-04-30T03:19:12.660Z,80.52
2023-04-30T03:21:43.337Z,80.51
2023-04-30T03:24:13.811Z,80.72
2023-04-30T03:26:44.497Z,81.08
2023-04-30T03:29:15.167Z,80.77
2023-04-30T03:31:49.226Z,80.44
2023-04-30T03:34:19.725Z,79.79
2023-04-30T03:36:50.164Z,79.66
2023-04-30T03:39:20.702Z,79.69
2023-04-30T03:41:51.264Z,79.60
2023-04-30T03:44:21.781Z,79.73
2023-04-30T03:46:54.937Z,80.26
2023-04-30T03:49:25.486Z,80.20
2023-04-30T03:51:56.485Z,79.77
2023-04-30T03:54:27.087Z,79.73
2023-04-30T03:56:57.792Z,79.21
2023-04-30T03:59:28.613Z,79.11
2023-04-30T04:02:02.003Z,79.35
2023-04-30T04:04:33.501Z,79.03
2023-04-30T04:07:04.413Z,79.21
2023-04-30T04:09:34.872Z,79.12
2023-04-30T04:12:08.432Z,79.07
2023-04-30T04:14:40.127Z,79.04
2023-04-30T04:17:13.553Z,78.92
2023-04-30T04:19:44.152Z,78.95
2023-04-30T04:22:15.195Z,77.90
2023-04-30T04:24:45.975Z,78.25
2023-04-30T04:27:20.621Z,78.05
2023-04-30T04:29:51.408Z,78.18
2023-04-30T04:32:25.512Z,77.65
2023-04-30T04:34:57.243Z,77.44
2023-04-30T04:37:27.841Z,77.41
2023-04-30T04:39:58.523Z,77.36
2023-04-30T04:42:29.188Z,78.00
2023-04-30T04:44:59.724Z,77.66
2023-04-30T04:47:33.616Z,77.50
2023-04-30T04:50:04.261Z,77.76
2023-04-30T04:52:34.769Z,78.55
2023-04-30T04:55:05.437Z,77.72
2023-04-30T04:57:36.409Z,77.35
2023-04-30T05:00:09.713Z,76.48
2023-04-30T05:02:43.025Z,75.65
2023-04-30T05:05:13.979Z,75.84
2023-04-30T05:07:44.998Z,76.35
2023-04-30T05:10:15.630Z,75.46
2023-04-30T05:12:46.335Z,75.39
2023-04-30T05:15:16.884Z,74.32
2023-04-30T05:17:49.998Z,75.14
2023-04-30T05:20:20.768Z,74.97
2023-04-30T05:22:51.225Z,75.01
2023-04-30T05:25:22.038Z,75.02
2023-04-30T05:27:52.762Z,74.55
2023-04-30T05:30:23.586Z,75.37
2023-04-30T05:32:57.082Z,74.67
2023-04-30T05:35:27.790Z,74.78
2023-04-30T05:37:58.250Z,74.50
2023-04-30T05:40:28.747Z,73.47
2023-04-30T05:42:59.473Z,74.04
2023-04-30T05:45:30.004Z,74.44
2023-04-30T05:48:03.125Z,73.57
2023-04-30T05:50:33.654Z,73.51
2023-04-30T05:53:04.323Z,73.58
2023-04-30T05:55:37.805Z,74.24
2023-04-30T05:58:08.223Z,73.88
2023-04-30T06:00:39.581Z,73.79
2023-04-30T06:03:12.668Z,72.99
2023-04-30T06:05:44.489Z,72.71
2023-04-30T06:08:15.085Z,73.23
2023-04-30T06:10:45.917Z,73.69
2023-04-30T06:13:18.780Z,73.63
2023-04-30T06:15:49.266Z,72.92
2023-04-30T06:18:22.469Z,73.14
2023-04-30T06:20:53.424Z,72.41
2023-04-30T06:23:23.948Z,72.42
2023-04-30T06:25:54.451Z,72.27
2023-04-30T06:28:25.087Z,72.04
2023-04-30T06:30:56.166Z,71.95
2023-04-30T06:33:28.932Z,71.42
2023-04-30T06:35:59.390Z,71.14
2023-04-30T06:38:29.880Z,71.65
2023-04-30T06:41:00.439Z,71.78
2023-04-30T06:43:33.847Z,70.52
2023-04-30T06:46:05.240Z,70.55
2023-04-30T06:48:38.297Z,70.54
2023-04-30T06:51:10.473Z,70.09
2023-04-30T06:53:41.753Z,70.42
2023-04-30T06:56:12.302Z,70.86
2023-04-30T06:58:42.941Z,71.13
2023-04-30T07:01:13.833Z,71.54
2023-04-30T07:03:47.251Z,70.69
2023-04-30T07:06:17.950Z,70.76
2023-04-30T07:08:48.765Z,70.79
2023-04-30T07:11:19.339Z,70.46
2023-04-30T07:13:49.904Z,68.98
2023-04-30T07:16:20.810Z,69.62
2023-04-30T07:18:53.953Z,70.28
2023-04-30T07:21:25.770Z,69.37
2023-04-30T07:23:56.402Z,68.89
2023-04-30T07:26:27.367Z,67.81
2023-04-30T07:28:57.690Z,66.09
2023-04-30T07:31:28.787Z,67.41
2023-04-30T07:34:02.018Z,67.22
2023-04-30T07:36:32.776Z,65.76
2023-04-30T07:39:03.876Z,63.77
2023-04-30T07:41:34.052Z,62.36
2023-04-30T07:44:04.593Z,62.61
2023-04-30T07:46:35.322Z,62.40
2023-04-30T07:49:08.640Z,61.94
2023-04-30T07:51:39.693Z,60.71
2023-04-30T07:54:09.975Z,58.51
2023-04-30T07:56:40.469Z,58.38
2023-04-30T07:59:11.330Z,58.06
2023-04-30T08:01:41.914Z,57.28
2023-04-30T08:04:15.100Z,57.87
2023-04-30T08:06:45.602Z,56.08
2023-04-30T08:09:16.163Z,56.46
2023-04-30T08:11:46.640Z,55.70
2023-04-30T08:14:17.188Z,55.85
2023-04-30T08:16:47.867Z,55.78
2023-04-30T08:19:21.130Z,54.84
2023-04-30T08:21:51.617Z,55.63
2023-04-30T08:24:22.082Z,53.37
2023-04-30T08:26:53.603Z,53.07
2023-04-30T08:29:25.340Z,50.27
2023-04-30T08:31:55.947Z,44.64
2023-04-30T08:34:29.054Z,46.35
2023-04-30T08:37:00.009Z,49.49
2023-04-30T08:39:30.772Z,49.70
2023-04-30T08:42:06.802Z,50.61
2023-04-30T08:44:39.894Z,51.22
2023-04-30T08:47:14.478Z,48.19
2023-04-30T08:49:49.083Z,42.79
2023-04-30T08:52:20.291Z,41.95
2023-04-30T08:54:51.611Z,40.18
2023-04-30T08:57:22.534Z,38.76
2023-04-30T08:59:53.440Z,37.17
2023-04-30T09:02:24.310Z,37.34
2023-04-30T09:04:57.629Z,33.93
2023-04-30T09:07:30.412Z,33.60
2023-04-30T09:10:00.977Z,31.70
2023-04-30T09:12:31.194Z,31.49
2023-04-30T09:15:03.792Z,31.80
2023-04-30T09:17:35.344Z,33.65
2023-04-30T09:20:18.361Z,34.69
2023-04-30T09:22:48.975Z,36.15
2023-04-30T09:25:20.670Z,34.91
2023-04-30T09:27:51.311Z,32.34
2023-04-30T09:30:34.981Z,32.65
2023-04-30T09:33:05.989Z,33.00
2023-04-30T09:35:41.906Z,32.76
2023-04-30T09:38:29.970Z,30.94
2023-04-30T09:41:04.924Z,32.21
2023-04-30T09:43:35.688Z,30.57
2023-04-30T09:46:07.557Z,29.75
2023-04-30T09:48:38.053Z,29.35
2023-04-30T09:51:14.146Z,29.18
2023-04-30T09:53:46.813Z,28.47
2023-04-30T09:56:21.773Z,28.42
2023-04-30T09:58:56.378Z,29.82
2023-04-30T10:01:30.108Z,30.60
2023-04-30T10:04:01.308Z,32.22
2023-04-30T10:06:36.028Z,32.15
2023-04-30T10:09:08.339Z,30.92
2023-04-30T10:11:42.514Z,29.15
2023-04-30T10:14:16.530Z,27.94
2023-04-30T10:16:55.186Z,27.90
2023-04-30T10:19:30.938Z,28.54
2023-04-30T10:22:06.468Z,28.83
2023-04-30T10:24:38.163Z,29.91
2023-04-30T10:27:08.960Z,28.83
2023-04-30T10:29:39.614Z,28.64
2023-04-30T10:32:16.933Z,29.81
2023-04-30T10:34:58.089Z,29.29
2023-04-30T10:37:39.775Z,29.98
2023-04-30T10:40:12.146Z,29.47
2023-04-30T10:42:50.875Z,27.34
2023-04-30T10:45:21.895Z,27.58
2023-04-30T10:47:52.660Z,28.06
2023-04-30T10:50:27.207Z,27.55
2023-04-30T10:53:09.199Z,26.68
2023-04-30T10:55:51.299Z,25.94
2023-04-30T10:58:34.716Z,26.39
2023-04-30T11:01:08.793Z,24.93
2023-04-30T11:03:40.222Z,26.35
2023-04-30T11:06:20.206Z,26.74
2023-04-30T11:08:53.431Z,24.92
2023-04-30T11:11:24.305Z,25.19
2023-04-30T11:14:03.851Z,24.76
2023-04-30T11:16:35.279Z,25.54
2023-04-30T11:19:16.238Z,24.17
2023-04-30T11:22:24.298Z,22.74
2023-04-30T11:25:10.158Z,21.81
2023-04-30T11:27:42.301Z,23.86
2023-04-30T11:30:18.341Z,22.72
2023-04-30T11:32:52.277Z,23.02
2023-04-30T11:35:23.198Z,23.09
2023-04-30T11:38:01.513Z,22.30
2023-04-30T11:40:39.736Z,22.53
2023-04-30T11:43:10.344Z,21.40
2023-04-30T11:45:42.697Z,21.50
2023-04-30T11:48:17.321Z,21.41
2023-04-30T11:50:48.259Z,21.65
2023-04-30T11:53:19.324Z,22.51
2023-04-30T11:55:52.844Z,20.80
2023-04-30T11:58:23.328Z,21.50
2023-04-30T12:00:55.530Z,19.86
2023-04-30T12:03:26.163Z,19.51
2023-04-30T12:05:56.751Z,20.77
2023-04-30T12:08:27.541Z,20.83
2023-04-30T12:11:00.746Z,21.25
2023-04-30T12:13:31.343Z,20.37
2023-04-30T12:16:03.641Z,20.68
2023-04-30T12:18:36.687Z,19.58
2023-04-30T12:21:07.975Z,19.89
2023-04-30T12:23:38.588Z,19.20
2023-04-30T12:26:11.752Z,18.70
2023-04-30T12:28:42.402Z,19.02
2023-04-30T12:31:13.000Z,18.64
2023-04-30T12:33:43.745Z,18.67
2023-04-30T12:36:14.324Z,18.37
2023-04-30T12:38:47.412Z,18.01
2023-04-30T12:41:21.411Z,18.40
2023-04-30T12:43:52.673Z,19.47
2023-04-30T12:46:30.703Z,17.75
2023-04-30T12:49:01.376Z,17.81
2023-04-30T12:51:31.970Z,16.96
2023-04-30T12:54:02.523Z,17.23
2023-04-30T12:56:35.658Z,18.16
2023-04-30T12:59:06.162Z,18.49
2023-04-30T13:01:37.645Z,17.58
2023-04-30T13:04:08.582Z,17.96
2023-04-30T13:06:39.732Z,17.75
2023-04-30T13:09:10.917Z,18.72
2023-04-30T13:11:44.157Z,17.83
2023-04-30T13:14:14.662Z,17.37
2023-04-30T13:16:45.121Z,17.66
2023-04-30T13:19:24.575Z,16.80
2023-04-30T13:21:54.995Z,16.15
2023-04-30T13:24:25.814Z,16.26
2023-04-30T13:26:59.506Z,15.99
2023-04-30T13:29:30.057Z,16.64
2023-04-30T13:32:00.551Z,16.22
2023-04-30T13:34:31.013Z,16.33
2023-04-30T13:37:01.587Z,15.97
2023-04-30T13:39:32.088Z,15.70
2023-04-30T13:42:05.617Z,15.58
2023-04-30T13:44:36.937Z,15.70
2023-04-30T13:47:07.849Z,16.34
2023-04-30T13:49:39.260Z,16.52
2023-04-30T13:52:09.959Z,16.70
2023-04-30T13:54:41.720Z,16.04
2023-04-30T13:57:14.849Z,15.57
2023-04-30T13:59:45.619Z,15.89
2023-04-30T14:02:16.205Z,16.28
2023-04-30T14:04:54.942Z,15.57
2023-04-30T14:07:35.642Z,16.27
2023-04-30T14:10:06.532Z,15.23
2023-04-30T14:12:39.721Z,15.25
2023-04-30T14:15:12.597Z,15.28
2023-04-30T14:17:43.556Z,15.09
2023-04-30T14:20:16.715Z,14.84
2023-04-30T14:22:47.376Z,14.25
2023-04-30T14:25:17.933Z,15.42
2023-04-30T14:27:51.088Z,15.10
2023-04-30T14:30:21.614Z,15.43
2023-04-30T14:32:52.060Z,14.12
2023-04-30T14:35:22.585Z,14.74
2023-04-30T14:37:53.122Z,15.28
2023-04-30T14:40:23.774Z,14.04
2023-04-30T14:42:56.821Z,14.47
2023-04-30T14:45:30.874Z,14.41
2023-04-30T14:48:04.627Z,14.64
2023-04-30T14:50:35.982Z,15.69
2023-04-30T14:53:06.803Z,15.65
2023-04-30T14:55:37.425Z,15.29
2023-04-30T14:58:10.545Z,16.00
2023-04-30T15:00:41.095Z,14.20
2023-04-30T15:03:11.729Z,15.36
2023-04-30T15:05:43.516Z,16.52
2023-04-30T15:08:14.016Z,16.30
2023-04-30T15:10:44.990Z,16.17
2023-04-30T15:13:18.517Z,16.36
2023-04-30T15:15:49.973Z,16.28
2023-04-30T15:18:20.539Z,16.05
2023-04-30T15:20:51.155Z,15.31
2023-04-30T15:23:21.983Z,16.56
2023-04-30T15:25:52.925Z,16.93
2023-04-30T15:28:26.551Z,17.48
2023-04-30T15:30:57.239Z,18.33
2023-04-30T15:33:29.103Z,20.15
2023-04-30T15:35:59.654Z,20.49
2023-04-30T15:38:31.665Z,21.90
2023-04-30T15:41:02.146Z,22.82
2023-04-30T15:43:35.379Z,23.66
2023-04-30T15:46:05.942Z,23.42
2023-04-30T15:48:36.457Z,24.41
2023-04-30T15:51:07.181Z,25.46
2023-04-30T15:53:37.747Z,26.44
2023-04-30T15:56:09.138Z,26.52
2023-04-30T15:58:42.772Z,25.84
2023-04-30T16:01:13.321Z,27.71
2023-04-30T16:03:43.726Z,27.26
2023-04-30T16:06:14.436Z,28.29
2023-04-30T16:08:46.252Z,28.00
2023-04-30T16:11:16.851Z,29.04
2023-04-30T16:13:50.149Z,28.72
2023-04-30T16:16:21.034Z,28.47
2023-04-30T16:18:51.818Z,29.55
2023-04-30T16:21:22.021Z,29.98
2023-04-30T16:23:53.030Z,30.23
2023-04-30T16:26:23.600Z,29.41
2023-04-30T16:28:56.865Z,30.54
2023-04-30T16:31:27.824Z,30.75
2023-04-30T16:33:58.461Z,30.26
2023-04-30T16:36:29.091Z,30.08
2023-04-30T16:38:59.785Z,30.74
2023-04-30T16:41:30.006Z,31.60
2023-04-30T16:44:03.147Z,31.89
2023-04-30T16:46:33.792Z,31.91
2023-04-30T16:49:04.288Z,32.45
2023-04-30T16:51:34.843Z,31.11
2023-04-30T16:54:05.475Z,31.56
2023-04-30T16:56:36.229Z,31.99
2023-04-30T16:59:09.612Z,32.18
2023-04-30T17:01:40.170Z,32.19
2023-04-30T17:04:11.527Z,32.16
2023-04-30T17:06:42.924Z,32.06
2023-04-30T17:09:13.524Z,31.82
2023-04-30T17:11:43.958Z,31.71
2023-04-30T17:14:19.641Z,31.80
2023-04-30T17:16:50.104Z,31.42
2023-04-30T17:19:20.913Z,31.45
2023-04-30T17:21:51.059Z,31.16
2023-04-30T17:24:22.577Z,31.53
2023-04-30T17:26:53.486Z,31.36
2023-04-30T17:29:26.215Z,31.51
2023-04-30T17:31:56.757Z,31.42
2023-04-30T17:34:27.691Z,31.70
2023-04-30T17:36:57.885Z,31.89
2023-04-30T17:39:29.062Z,31.80
2023-04-30T17:41:59.501Z,32.06
2023-04-30T17:44:34.290Z,32.19
2023-04-30T17:47:05.844Z,32.34
2023-04-30T17:49:36.424Z,32.83
2023-04-30T17:52:07.257Z,33.09
2023-04-30T17:54:37.715Z,33.34
2023-04-30T17:57:08.199Z,33.47
2023-04-30T17:59:42.265Z,33.52
2023-04-30T18:02:12.934Z,33.57
2023-04-30T18:04:43.660Z,33.95
2023-04-30T18:07:14.130Z,34.13
2023-04-30T18:09:44.916Z,35.10
2023-04-30T18:12:15.530Z,36.22
2023-04-30T18:14:48.661Z,36.36
2023-04-30T18:17:19.284Z,36.91
2023-04-30T18:19:50.041Z,36.52
2023-04-30T18:22:22.747Z,36.90
2023-04-30T18:24:53.546Z,36.75
2023-04-30T18:27:24.225Z,37.32
2023-04-30T18:29:59.506Z,38.05
2023-04-30T18:32:30.332Z,38.52
2023-04-30T18:35:02.260Z,38.34
2023-04-30T18:37:33.249Z,37.98
2023-04-30T18:40:04.431Z,39.12
2023-04-30T18:42:34.928Z,39.35
2023-04-30T18:45:09.667Z,39.72
2023-04-30T18:47:40.240Z,40.31
2023-04-30T18:50:15.617Z,41.04
2023-04-30T18:52:46.551Z,40.99
2023-04-30T18:55:16.847Z,41.90
2023-04-30T18:57:47.491Z,42.58
2023-04-30T19:00:21.356Z,42.18
2023-04-30T19:02:51.951Z,42.37
2023-04-30T19:05:22.565Z,42.91
2023-04-30T19:07:53.032Z,42.86
2023-04-30T19:10:23.628Z,42.70
2023-04-30T19:12:54.151Z,43.10
2023-04-30T19:15:29.933Z,43.16
2023-04-30T19:18:01.606Z,43.38
2023-04-30T19:20:32.164Z,43.44
2023-04-30T19:23:02.653Z,43.85
2023-04-30T19:25:33.915Z,44.15
2023-04-30T19:28:04.440Z,44.62
2023-04-30T19:30:37.704Z,44.99
2023-04-30T19:33:08.269Z,44.82
2023-04-30T19:35:38.757Z,44.62
2023-04-30T19:38:09.230Z,43.72
2023-04-30T19:40:39.992Z,43.57
2023-04-30T19:43:11.483Z,44.30
2023-04-30T19:45:53.423Z,45.10
2023-04-30T19:48:27.192Z,45.37
2023-04-30T19:50:58.349Z,44.75
2023-04-30T19:53:29.472Z,43.10
2023-04-30T19:56:00.024Z,42.91
2023-04-30T19:58:33.102Z,42.86
2023-04-30T20:01:06.339Z,42.89
2023-04-30T20:03:37.015Z,43.15
2023-04-30T20:06:07.816Z,43.17
2023-04-30T20:08:38.630Z,43.50
2023-04-30T20:11:09.242Z,44.02
2023-04-30T20:13:39.721Z,43.64
2023-04-30T20:16:12.866Z,43.11
2023-04-30T20:18:43.537Z,42.82
2023-04-30T20:21:14.162Z,42.36
2023-04-30T20:23:44.713Z,41.68
2023-04-30T20:26:15.323Z,41.73
2023-04-30T20:28:48.706Z,41.85
2023-04-30T20:31:21.959Z,42.33
2023-04-30T20:33:52.621Z,42.54
2023-04-30T20:36:23.126Z,43.07
2023-04-30T20:38:54.538Z,42.95
2023-04-30T20:41:25.049Z,43.25
2023-04-30T20:43:55.544Z,44.51
2023-04-30T20:46:28.894Z,45.26
2023-04-30T20:49:04.161Z,45.54
2023-04-30T20:51:34.953Z,45.57
2023-04-30T20:54:05.710Z,46.96
2023-04-30T20:56:36.353Z,47.79
2023-04-30T20:59:07.315Z,47.81
2023-04-30T21:01:40.752Z,47.85
2023-04-30T21:04:11.507Z,47.86
2023-04-30T21:06:42.253Z,47.61
2023-04-30T21:09:12.756Z,47.12
2023-04-30T21:11:43.931Z,47.78
2023-04-30T21:14:15.847Z,47.13
2023-04-30T21:16:49.234Z,46.99
2023-04-30T21:19:19.902Z,47.63
2023-04-30T21:21:50.479Z,47.90
2023-04-30T21:24:21.184Z,48.76
2023-04-30T21:26:51.669Z,48.75
2023-04-30T21:29:22.690Z,48.77
2023-04-30T21:31:58.343Z,50.10
2023-04-30T21:34:28.913Z,51.57
2023-04-30T21:37:00.062Z,51.14
2023-04-30T21:39:30.863Z,51.82
2023-04-30T21:42:01.518Z,51.43
2023-04-30T21:44:36.314Z,50.76
2023-04-30T21:47:10.724Z,49.82
2023-04-30T21:49:42.865Z,49.88
2023-04-30T21:52:13.479Z,50.86
2023-04-30T21:54:44.121Z,50.57
2023-04-30T21:57:14.684Z,49.82
2023-04-30T21:59:45.933Z,50.36
2023-04-30T22:02:24.380Z,49.85
2023-04-30T22:04:55.597Z,50.19
2023-04-30T22:07:28.726Z,50.38
2023-04-30T22:09:59.236Z,50.41
2023-04-30T22:12:29.736Z,50.65
2023-04-30T22:15:01.140Z,51.04
2023-04-30T22:17:34.542Z,50.83
2023-04-30T22:20:05.006Z,50.35
2023-04-30T22:22:36.578Z,49.46
2023-04-30T22:25:10.709Z,48.58
2023-04-30T22:27:41.165Z,49.49
2023-04-30T22:30:12.625Z,49.16
2023-04-30T22:32:45.911Z,49.06
2023-04-30T22:35:19.392Z,48.81
2023-04-30T22:37:49.731Z,48.88
2023-04-30T22:40:20.744Z,49.94
2023-04-30T22:42:51.247Z,49.60
2023-04-30T22:45:21.977Z,49.89
2023-04-30T22:47:56.898Z,49.91
2023-04-30T22:50:27.720Z,50.48
2023-04-30T22:52:58.737Z,49.88
2023-04-30T22:55:29.677Z,49.72
2023-04-30T22:58:01.867Z,49.82
2023-04-30T23:00:32.600Z,50.24
2023-04-30T23:03:05.895Z,50.51
2023-04-30T23:05:39.423Z,50.20
2023-04-30T23:08:10.035Z,50.54
2023-04-30T23:10:40.763Z,50.74
2023-04-30T23:13:11.261Z,50.95
2023-04-30T23:15:43.440Z,51.60
2023-04-30T23:18:17.727Z,51.94
2023-04-30T23:20:48.111Z,51.99
2023-04-30T23:23:18.721Z,51.78
2023-04-30T23:25:53.145Z,51.49
2023-04-30T23:28:24.584Z,51.95
2023-04-30T23:30:58.216Z,52.11
2023-04-30T23:33:32.126Z,52.71
2023-04-30T23:36:03.269Z,53.35
2023-04-30T23:38:34.020Z,53.29
2023-04-30T23:41:05.327Z,53.79
2023-04-30T23:43:35.888Z,53.47
2023-04-30T23:46:06.471Z,53.47
2023-04-30T23:48:39.847Z,53.70
2023-04-30T23:51:10.797Z,53.98
2023-04-30T23:53:41.312Z,53.86
2023-04-30T23:56:11.831Z,54.07
2023-04-30T23:58:42.363Z,54.90
